Time;durP1;ratioP1;P1;durP2;ratioP2;P2;SDS_P1;SDS_P2;PMS_P1;PMS_P2;Temp;Humidity;BMP_temperature;BMP_pressure;BME280_temperature;BME280_humidity;BME280_pressure;Samples;Min_cycle;Max_cycle;Signal;HPM_P1;HPM_P2
2023/09/03 00:00:56;;;;;;;4.22;3.50;;;;;;;;;;4993275;28;20053;-67
2023/09/03 00:03:21;;;;;;;6.03;4.07;;;;;;;;;;4994113;28;20113;-67
2023/09/03 00:05:50;;;;;;;4.65;3.95;;;;;;;;;;4992431;28;20433;-67
2023/09/03 00:08:20;;;;;;;4.45;3.47;;;;;;;;;;4994064;28;20340;-67
2023/09/03 00:10:48;;;;;;;4.17;3.50;;;;;;;;;;4994058;28;20030;-67
2023/09/03 00:13:13;;;;;;;5.22;3.20;;;;;;;;;;4994332;28;20054;-67
2023/09/03 00:15:39;;;;;;;4.38;3.60;;;;;;;;;;4993934;28;20537;-67
2023/09/03 00:18:05;;;;;;;6.10;4.55;;;;;;;;;;4993928;28;20426;-62
2023/09/03 00:20:30;;;;;;;6.75;5.80;;;;;;;;;;4994081;28;20022;-62
2023/09/03 00:22:56;;;;;;;5.95;5.55;;;;;;;;;;4992433;28;20037;-61
2023/09/03 00:25:21;;;;;;;8.00;7.18;;;;;;;;;;4992415;28;20048;-62
2023/09/03 00:27:47;;;;;;;6.45;5.40;;;;;;;;;;4994048;28;20030;-61
2023/09/03 00:30:13;;;;;;;6.30;4.88;;;;;;;;;;4994018;28;20080;-62
2023/09/03 00:32:39;;;;;;;5.30;4.55;;;;;;;;;;4992491;28;20034;-62
2023/09/03 00:35:05;;;;;;;7.72;4.68;;;;;;;;;;4992920;28;20022;-61
2023/09/03 00:37:30;;;;;;;5.72;4.30;;;;;;;;;;4993790;28;20133;-67
2023/09/03 00:39:56;;;;;;;6.18;4.40;;;;;;;;;;4993875;28;20048;-67
2023/09/03 00:42:22;;;;;;;4.30;3.95;;;;;;;;;;4992534;28;20125;-67
2023/09/03 00:44:47;;;;;;;4.40;4.00;;;;;;;;;;4994719;28;20549;-61
2023/09/03 00:47:19;;;;;;;4.30;4.00;;;;;;;;;;4996747;28;20038;-67
2023/09/03 00:49:45;;;;;;;4.30;3.97;;;;;;;;;;4995972;28;20023;-63
2023/09/03 00:52:11;;;;;;;4.60;4.07;;;;;;;;;;4997300;28;20477;-63
2023/09/03 00:54:36;;;;;;;5.60;4.45;;;;;;;;;;4995886;28;20513;-63
2023/09/03 00:57:02;;;;;;;4.70;4.35;;;;;;;;;;4995889;28;20065;-63
2023/09/03 00:59:28;;;;;;;5.00;4.60;;;;;;;;;;4996140;28;20034;-65
2023/09/03 01:01:54;;;;;;;5.32;4.15;;;;;;;;;;4976636;28;1078098;-69
2023/09/03 01:04:19;;;;;;;4.90;4.35;;;;;;;;;;5018315;28;20116;-68
2023/09/03 01:06:47;;;;;;;4.43;4.03;;;;;;;;;;5037397;28;20029;-68
2023/09/03 01:09:13;;;;;;;4.40;4.00;;;;;;;;;;5020077;28;20079;-61
2023/09/03 01:11:53;;;;;;;5.95;4.22;;;;;;;;;;5037510;28;20496;-62
2023/09/03 01:14:21;;;;;;;3.90;3.60;;;;;;;;;;5037443;28;20461;-66
2023/09/03 01:16:51;;;;;;;4.78;3.83;;;;;;;;;;5037775;28;20053;-66
2023/09/03 01:19:22;;;;;;;7.93;4.47;;;;;;;;;;5003127;28;20116;-66
2023/09/03 01:22:04;;;;;;;4.60;4.20;;;;;;;;;;5019757;28;20406;-62
2023/09/03 01:24:40;;;;;;;5.00;4.07;;;;;;;;;;5019373;28;20440;-61
2023/09/03 01:27:26;;;;;;;5.50;3.97;;;;;;;;;;5036988;28;20026;-61
2023/09/03 01:29:52;;;;;;;4.65;4.22;;;;;;;;;;5036640;28;20128;-68
2023/09/03 01:32:18;;;;;;;5.07;4.68;;;;;;;;;;5003035;28;20049;-68
2023/09/03 01:34:44;;;;;;;4.60;4.30;;;;;;;;;;5037100;28;20461;-63
2023/09/03 01:37:11;;;;;;;5.45;4.32;;;;;;;;;;5019383;28;20037;-68
2023/09/03 01:39:36;;;;;;;4.60;4.20;;;;;;;;;;5037000;28;20021;-68
2023/09/03 01:42:01;;;;;;;6.20;5.18;;;;;;;;;;5036842;28;20116;-63
2023/09/03 01:44:27;;;;;;;6.18;5.00;;;;;;;;;;5037203;28;20051;-63
2023/09/03 01:47:11;;;;;;;5.63;4.93;;;;;;;;;;5019005;28;20038;-63
2023/09/03 01:49:48;;;;;;;5.35;4.85;;;;;;;;;;5019242;28;20017;-63
2023/09/03 01:52:13;;;;;;;5.35;4.68;;;;;;;;;;5036620;28;20065;-67
2023/09/03 01:54:47;;;;;;;5.60;5.00;;;;;;;;;;5036647;28;20025;-60
2023/09/03 01:57:50;;;;;;;5.50;5.03;;;;;;;;;;5035818;28;20022;-60
2023/09/03 02:00:17;;;;;;;10.52;5.13;;;;;;;;;;4905416;29;20040;-67
2023/09/03 02:02:44;;;;;;;7.45;4.78;;;;;;;;;;4985700;28;20062;-62
2023/09/03 02:05:11;;;;;;;4.57;4.13;;;;;;;;;;4996913;28;20517;-66
2023/09/03 02:07:36;;;;;;;4.57;4.20;;;;;;;;;;4997204;28;20034;-68
2023/09/03 02:10:02;;;;;;;5.57;5.05;;;;;;;;;;4997084;28;20121;-68
2023/09/03 02:12:28;;;;;;;4.55;4.28;;;;;;;;;;4995890;28;20027;-67
2023/09/03 02:14:53;;;;;;;4.47;4.18;;;;;;;;;;4979513;28;20153;-68
2023/09/03 02:17:21;;;;;;;4.38;3.97;;;;;;;;;;4995482;28;20034;-70
2023/09/03 02:19:50;;;;;;;4.15;3.78;;;;;;;;;;4997062;28;20034;-69
2023/09/03 02:22:16;;;;;;;5.80;4.00;;;;;;;;;;4995564;28;20045;-67
2023/09/03 02:24:41;;;;;;;4.18;3.75;;;;;;;;;;4996744;28;20038;-69
2023/09/03 02:27:06;;;;;;;6.60;3.78;;;;;;;;;;4994954;28;20030;-69
2023/09/03 02:29:32;;;;;;;4.30;4.00;;;;;;;;;;4996244;28;20061;-67
2023/09/03 02:31:58;;;;;;;4.35;4.03;;;;;;;;;;4996389;28;20018;-69
2023/09/03 02:34:24;;;;;;;6.90;3.97;;;;;;;;;;4995486;28;20026;-67
2023/09/03 02:36:50;;;;;;;4.65;3.85;;;;;;;;;;4979233;28;20046;-67
2023/09/03 02:39:15;;;;;;;5.15;3.47;;;;;;;;;;4979154;28;20025;-67
2023/09/03 02:41:41;;;;;;;6.55;3.70;;;;;;;;;;4996351;28;20558;-67
2023/09/03 02:44:07;;;;;;;6.25;4.40;;;;;;;;;;4995234;28;20034;-67
2023/09/03 02:46:32;;;;;;;4.25;3.85;;;;;;;;;;4995908;28;20046;-66
2023/09/03 02:48:58;;;;;;;4.88;4.38;;;;;;;;;;4996213;28;20097;-68
2023/09/03 02:51:25;;;;;;;4.20;3.75;;;;;;;;;;4995229;28;20378;-68
2023/09/03 02:53:51;;;;;;;3.10;2.90;;;;;;;;;;4995123;28;20022;-68
2023/09/03 02:56:17;;;;;;;2.58;2.38;;;;;;;;;;4996541;28;20034;-62
2023/09/03 02:58:42;;;;;;;4.05;2.83;;;;;;;;;;4995087;28;20362;-62
2023/09/03 03:01:09;;;;;;;4.35;3.10;;;;;;;;;;5004779;28;20046;-66
2023/09/03 03:03:37;;;;;;;4.65;3.05;;;;;;;;;;4998411;28;20030;-66
2023/09/03 03:06:02;;;;;;;4.60;3.70;;;;;;;;;;5014121;28;20029;-64
2023/09/03 03:08:28;;;;;;;4.70;4.30;;;;;;;;;;5015364;28;20030;-65
2023/09/03 03:11:03;;;;;;;6.28;4.68;;;;;;;;;;5015133;28;20049;-68
2023/09/03 03:13:29;;;;;;;4.93;4.50;;;;;;;;;;5014281;28;20049;-67
2023/09/03 03:15:55;;;;;;;5.35;4.95;;;;;;;;;;5014343;28;20480;-67
2023/09/03 03:18:20;;;;;;;4.85;4.45;;;;;;;;;;5014447;28;20479;-62
2023/09/03 03:20:46;;;;;;;5.07;4.43;;;;;;;;;;5014020;28;20037;-62
2023/09/03 03:23:12;;;;;;;4.25;3.83;;;;;;;;;;5015484;28;20124;-63
2023/09/03 03:25:40;;;;;;;4.38;3.92;;;;;;;;;;5013821;28;20425;-63
2023/09/03 03:28:07;;;;;;;7.18;4.55;;;;;;;;;;5013534;28;20017;-64
2023/09/03 03:30:33;;;;;;;4.85;4.05;;;;;;;;;;5014144;28;20030;-62
2023/09/03 03:32:58;;;;;;;4.03;3.45;;;;;;;;;;5014173;28;20117;-63
2023/09/03 03:35:23;;;;;;;4.38;3.97;;;;;;;;;;5014881;28;20021;-65
2023/09/03 03:37:49;;;;;;;6.38;4.18;;;;;;;;;;4998198;28;20113;-62
2023/09/03 03:40:14;;;;;;;4.60;4.30;;;;;;;;;;4994152;28;20057;-62
2023/09/03 03:42:40;;;;;;;5.20;4.70;;;;;;;;;;4977929;28;20026;-61
2023/09/03 03:45:09;;;;;;;4.95;4.55;;;;;;;;;;4993676;28;20030;-62
2023/09/03 03:47:36;;;;;;;4.88;4.57;;;;;;;;;;4993597;28;20117;-69
2023/09/03 03:50:01;;;;;;;4.70;4.38;;;;;;;;;;4993512;28;20110;-69
2023/09/03 03:52:27;;;;;;;4.75;4.35;;;;;;;;;;4995044;28;20455;-69
2023/09/03 03:54:52;;;;;;;4.80;4.35;;;;;;;;;;4993874;28;20033;-68
2023/09/03 03:57:18;;;;;;;4.97;4.47;;;;;;;;;;4993796;28;20035;-68
2023/09/03 03:59:44;;;;;;;4.97;4.47;;;;;;;;;;4977157;28;20034;-68
2023/09/03 04:02:09;;;;;;;9.75;7.38;;;;;;;;;;4993423;28;20080;-69
2023/09/03 04:04:36;;;;;;;7.63;6.80;;;;;;;;;;4994685;28;20463;-62
2023/09/03 04:07:01;;;;;;;8.52;6.50;;;;;;;;;;4994994;28;20026;-60
2023/09/03 04:09:29;;;;;;;7.93;5.32;;;;;;;;;;4993565;28;20053;-60
2023/09/03 04:11:55;;;;;;;7.88;5.60;;;;;;;;;;4994654;28;20458;-67
2023/09/03 04:14:20;;;;;;;6.30;5.68;;;;;;;;;;4993410;28;20068;-68
2023/09/03 04:16:46;;;;;;;6.15;5.63;;;;;;;;;;4993233;28;20057;-68
2023/09/03 04:19:12;;;;;;;4.72;4.32;;;;;;;;;;4992679;28;20040;-68
2023/09/03 04:21:38;;;;;;;4.72;4.32;;;;;;;;;;4994630;28;20479;-68
2023/09/03 04:24:08;;;;;;;4.97;4.57;;;;;;;;;;4993014;28;20023;-61
2023/09/03 04:26:33;;;;;;;5.95;4.10;;;;;;;;;;4993142;28;20483;-61
2023/09/03 04:28:59;;;;;;;4.60;4.13;;;;;;;;;;4993783;28;20030;-68
2023/09/03 04:31:25;;;;;;;4.13;3.83;;;;;;;;;;4993596;28;20105;-67
2023/09/03 04:33:51;;;;;;;4.45;4.03;;;;;;;;;;4993349;28;20030;-67
2023/09/03 04:36:16;;;;;;;4.35;3.97;;;;;;;;;;4993250;28;20114;-67
2023/09/03 04:38:42;;;;;;;5.18;4.07;;;;;;;;;;4993375;28;20022;-60
2023/09/03 04:41:09;;;;;;;4.20;3.90;;;;;;;;;;4993087;28;20038;-60
2023/09/03 04:43:42;;;;;;;3.60;3.35;;;;;;;;;;4992985;28;20027;-60
2023/09/03 04:46:07;;;;;;;5.05;4.00;;;;;;;;;;4993238;28;20505;-67
2023/09/03 04:48:32;;;;;;;4.72;4.03;;;;;;;;;;4994362;28;20026;-67
2023/09/03 04:51:02;;;;;;;4.70;4.10;;;;;;;;;;4992809;28;20053;-67
2023/09/03 04:53:27;;;;;;;4.82;4.40;;;;;;;;;;4993178;28;20080;-67
2023/09/03 04:55:53;;;;;;;4.30;3.92;;;;;;;;;;4994580;28;20425;-60
2023/09/03 04:58:22;;;;;;;4.40;4.00;;;;;;;;;;4976888;28;20151;-60
2023/09/03 05:00:48;;;;;;;4.38;3.97;;;;;;;;;;5001712;28;20125;-67
2023/09/03 05:03:13;;;;;;;4.70;4.20;;;;;;;;;;4979868;28;20448;-68
2023/09/03 05:05:40;;;;;;;5.50;5.00;;;;;;;;;;5014138;28;20022;-68
2023/09/03 05:08:08;;;;;;;4.32;3.83;;;;;;;;;;4996560;28;20040;-67
2023/09/03 05:10:34;;;;;;;5.25;4.47;;;;;;;;;;4996624;28;20022;-68
2023/09/03 05:12:59;;;;;;;4.32;4.00;;;;;;;;;;4994812;28;20026;-68
2023/09/03 05:15:28;;;;;;;3.90;3.53;;;;;;;;;;4995305;28;20026;-68
2023/09/03 05:17:53;;;;;;;4.30;3.95;;;;;;;;;;4995394;28;20413;-67
2023/09/03 05:20:19;;;;;;;4.25;3.65;;;;;;;;;;4995571;28;20026;-69
2023/09/03 05:22:44;;;;;;;4.40;4.10;;;;;;;;;;4995378;28;20034;-68
2023/09/03 05:25:10;;;;;;;4.82;4.25;;;;;;;;;;5012753;28;20474;-62
2023/09/03 05:27:35;;;;;;;4.80;4.40;;;;;;;;;;4995410;28;20033;-63
2023/09/03 05:30:00;;;;;;;4.60;4.22;;;;;;;;;;5013026;28;20026;-68
2023/09/03 05:32:26;;;;;;;4.18;3.85;;;;;;;;;;4997894;28;20018;-69
2023/09/03 05:34:52;;;;;;;4.88;4.38;;;;;;;;;;4998959;28;20095;-62
2023/09/03 05:37:18;;;;;;;4.45;4.13;;;;;;;;;;5016352;28;20030;-68
2023/09/03 05:39:43;;;;;;;5.00;4.60;;;;;;;;;;4998200;28;20053;-66
2023/09/03 05:42:09;;;;;;;5.05;4.47;;;;;;;;;;5006475;28;20033;-65
2023/09/03 05:44:34;;;;;;;4.72;4.25;;;;;;;;;;5001577;28;20128;-65
2023/09/03 05:47:00;;;;;;;4.82;3.75;;;;;;;;;;5002183;28;20029;-65
2023/09/03 05:49:26;;;;;;;3.70;3.35;;;;;;;;;;5008934;28;20040;-65
2023/09/03 05:51:56;;;;;;;4.10;3.72;;;;;;;;;;4998358;28;20084;-66
2023/09/03 05:54:22;;;;;;;4.25;3.95;;;;;;;;;;5003673;28;20030;-66
2023/09/03 05:56:49;;;;;;;4.18;3.83;;;;;;;;;;4998905;28;20044;-67
2023/09/03 05:59:15;;;;;;;4.40;3.88;;;;;;;;;;5015957;28;20035;-67
2023/09/03 06:01:41;;;;;;;3.85;3.63;;;;;;;;;;4996887;28;20054;-67
2023/09/03 06:04:16;;;;;;;4.95;3.78;;;;;;;;;;4995532;28;20026;-67
2023/09/03 06:06:42;;;;;;;3.60;3.30;;;;;;;;;;4996641;28;20038;-67
2023/09/03 06:09:08;;;;;;;3.50;3.25;;;;;;;;;;4995619;28;20153;-67
2023/09/03 06:11:34;;;;;;;3.28;3.03;;;;;;;;;;4995253;28;20026;-67
2023/09/03 06:14:00;;;;;;;3.08;2.88;;;;;;;;;;4995511;28;20042;-67
2023/09/03 06:16:25;;;;;;;15.65;6.90;;;;;;;;;;4996478;28;20406;-67
2023/09/03 06:18:51;;;;;;;11.55;5.57;;;;;;;;;;4995912;28;20036;-67
2023/09/03 06:21:17;;;;;;;5.72;3.95;;;;;;;;;;4992642;28;20030;-67
2023/09/03 06:23:42;;;;;;;4.78;4.38;;;;;;;;;;4995996;28;20489;-68
2023/09/03 06:26:07;;;;;;;4.30;4.00;;;;;;;;;;4996142;28;20030;-67
2023/09/03 06:28:33;;;;;;;4.43;3.42;;;;;;;;;;4996117;28;20069;-66
2023/09/03 06:30:59;;;;;;;3.53;3.25;;;;;;;;;;4995988;28;20027;-67
2023/09/03 06:33:24;;;;;;;3.42;3.17;;;;;;;;;;4995699;28;20026;-63
2023/09/03 06:35:50;;;;;;;3.20;3.00;;;;;;;;;;4994309;28;20037;-66
2023/09/03 06:38:15;;;;;;;3.28;3.08;;;;;;;;;;4995824;28;20494;-64
2023/09/03 06:40:41;;;;;;;3.13;2.92;;;;;;;;;;4996081;28;20038;-64
2023/09/03 06:43:07;;;;;;;3.33;3.03;;;;;;;;;;4994898;28;20363;-64
2023/09/03 06:45:33;;;;;;;3.25;3.05;;;;;;;;;;4995697;28;20098;-64
2023/09/03 06:47:58;;;;;;;3.67;3.38;;;;;;;;;;4995616;28;20030;-63
2023/09/03 06:50:23;;;;;;;2.95;2.75;;;;;;;;;;4994309;28;20026;-65
2023/09/03 06:52:49;;;;;;;3.35;3.05;;;;;;;;;;4995606;28;20366;-65
2023/09/03 06:55:14;;;;;;;3.05;2.90;;;;;;;;;;4977650;28;20037;-65
2023/09/03 06:57:39;;;;;;;2.63;2.50;;;;;;;;;;4995506;28;20383;-63
2023/09/03 07:00:06;;;;;;;2.90;2.70;;;;;;;;;;4996825;28;20029;-66
2023/09/03 07:02:32;;;;;;;3.30;3.00;;;;;;;;;;5014800;28;20088;-67
2023/09/03 07:04:59;;;;;;;2.95;2.78;;;;;;;;;;4981284;28;20053;-69
2023/09/03 07:07:26;;;;;;;3.03;2.83;;;;;;;;;;5013708;28;20088;-69
2023/09/03 07:09:51;;;;;;;3.13;2.90;;;;;;;;;;5014293;28;20014;-69
2023/09/03 07:12:17;;;;;;;2.67;2.58;;;;;;;;;;5014645;28;20417;-69
2023/09/03 07:14:42;;;;;;;2.95;2.75;;;;;;;;;;5013912;28;20525;-68
2023/09/03 07:17:07;;;;;;;2.78;2.63;;;;;;;;;;5014497;28;20725;-69
2023/09/03 07:19:33;;;;;;;3.03;2.83;;;;;;;;;;5014185;28;20026;-68
2023/09/03 07:21:58;;;;;;;2.80;2.60;;;;;;;;;;5013873;28;20036;-69
2023/09/03 07:24:24;;;;;;;3.10;2.85;;;;;;;;;;4996065;28;20034;-68
2023/09/03 07:26:49;;;;;;;3.40;3.20;;;;;;;;;;4996446;28;20034;-69
2023/09/03 07:29:15;;;;;;;3.20;3.00;;;;;;;;;;4995987;28;20497;-68
2023/09/03 07:31:41;;;;;;;2.95;2.75;;;;;;;;;;4995862;28;20022;-68
2023/09/03 07:34:10;;;;;;;3.22;3.03;;;;;;;;;;5013538;28;20458;-69
2023/09/03 07:36:36;;;;;;;2.80;2.60;;;;;;;;;;4995642;28;20028;-68
2023/09/03 07:39:03;;;;;;;3.13;2.92;;;;;;;;;;4996673;28;20034;-68
2023/09/03 07:41:29;;;;;;;3.85;3.28;;;;;;;;;;5013360;28;20030;-69
2023/09/03 07:43:55;;;;;;;2.65;2.55;;;;;;;;;;5013795;28;20033;-68
2023/09/03 07:46:20;;;;;;;4.35;3.08;;;;;;;;;;4995949;28;20030;-68
2023/09/03 07:48:46;;;;;;;4.15;3.78;;;;;;;;;;5013286;28;20010;-69
2023/09/03 07:51:14;;;;;;;3.20;3.00;;;;;;;;;;5014217;28;20026;-69
2023/09/03 07:53:40;;;;;;;4.00;3.70;;;;;;;;;;5013097;28;20449;-68
2023/09/03 07:56:05;;;;;;;4.30;4.00;;;;;;;;;;5013988;28;20026;-70
2023/09/03 07:58:31;;;;;;;3.97;3.50;;;;;;;;;;5013844;28;20033;-70
2023/09/03 08:00:56;;;;;;;3.78;3.42;;;;;;;;;;5013055;28;20049;-70
2023/09/03 08:03:25;;;;;;;5.38;4.20;;;;;;;;;;5013411;28;20507;-70
2023/09/03 08:05:53;;;;;;;3.50;3.22;;;;;;;;;;5013623;28;20022;-70
2023/09/03 08:08:18;;;;;;;4.07;3.50;;;;;;;;;;4996141;28;20053;-71
2023/09/03 08:10:44;;;;;;;3.55;3.25;;;;;;;;;;5013284;28;20082;-70
2023/09/03 08:13:09;;;;;;;2.92;2.72;;;;;;;;;;5013450;28;20029;-70
2023/09/03 08:15:34;;;;;;;2.83;2.72;;;;;;;;;;5013172;28;20046;-70
2023/09/03 08:18:00;;;;;;;3.25;2.92;;;;;;;;;;4996062;28;20038;-70
2023/09/03 08:20:25;;;;;;;2.92;2.72;;;;;;;;;;4995321;28;20484;-71
2023/09/03 08:22:51;;;;;;;4.07;3.70;;;;;;;;;;5013831;28;20033;-71
2023/09/03 08:25:16;;;;;;;4.80;4.40;;;;;;;;;;5013613;28;20026;-70
2023/09/03 08:27:42;;;;;;;4.05;3.65;;;;;;;;;;4995411;28;20385;-70
2023/09/03 08:30:08;;;;;;;3.13;2.80;;;;;;;;;;4979862;28;20075;-70
2023/09/03 08:32:33;;;;;;;3.97;3.67;;;;;;;;;;5013331;28;20419;-70
2023/09/03 08:34:58;;;;;;;4.22;3.83;;;;;;;;;;4995686;28;20030;-70
2023/09/03 08:37:26;;;;;;;4.88;3.20;;;;;;;;;;5013177;28;20033;-71
2023/09/03 08:39:51;;;;;;;5.25;3.60;;;;;;;;;;5013132;28;20461;-70
2023/09/03 08:42:17;;;;;;;3.35;3.05;;;;;;;;;;5012815;28;20067;-70
2023/09/03 08:44:45;;;;;;;4.82;3.70;;;;;;;;;;4979064;28;20436;-70
2023/09/03 08:47:12;;;;;;;3.40;3.10;;;;;;;;;;5013090;28;20025;-70
2023/09/03 08:49:38;;;;;;;5.68;3.20;;;;;;;;;;5012977;28;20018;-70
2023/09/03 08:52:04;;;;;;;4.82;3.90;;;;;;;;;;5013573;28;20037;-70
2023/09/03 08:54:29;;;;;;;4.38;3.83;;;;;;;;;;4995267;28;20144;-70
2023/09/03 08:56:55;;;;;;;3.88;3.30;;;;;;;;;;4995640;28;20453;-70
2023/09/03 08:59:20;;;;;;;3.55;3.25;;;;;;;;;;4995443;28;20084;-70
2023/09/03 09:01:46;;;;;;;3.33;3.08;;;;;;;;;;5012444;28;20085;-70
2023/09/03 09:04:13;;;;;;;2.90;2.70;;;;;;;;;;4995634;28;20480;-70
2023/09/03 09:06:43;;;;;;;2.85;2.65;;;;;;;;;;5015401;28;20030;-71
2023/09/03 09:09:09;;;;;;;2.25;2.13;;;;;;;;;;5015432;28;20084;-70
2023/09/03 09:11:38;;;;;;;3.75;2.50;;;;;;;;;;5016239;28;20045;-71
2023/09/03 09:14:07;;;;;;;3.17;2.78;;;;;;;;;;5015711;28;20071;-71
2023/09/03 09:16:32;;;;;;;2.72;2.63;;;;;;;;;;5016422;28;20496;-70
2023/09/03 09:18:58;;;;;;;3.38;2.80;;;;;;;;;;5016625;28;20034;-70
2023/09/03 09:21:24;;;;;;;3.33;2.92;;;;;;;;;;5015821;28;20488;-69
2023/09/03 09:23:50;;;;;;;2.90;2.70;;;;;;;;;;5016498;28;20129;-69
2023/09/03 09:26:21;;;;;;;2.95;2.72;;;;;;;;;;5026960;28;20020;-69
2023/09/03 09:28:59;;;;;;;3.08;2.78;;;;;;;;;;5002267;28;20030;-69
2023/09/03 09:31:29;;;;;;;3.25;2.70;;;;;;;;;;5036001;28;20137;-69
2023/09/03 09:33:54;;;;;;;3.67;3.27;;;;;;;;;;5018188;28;20087;-69
2023/09/03 09:36:20;;;;;;;4.00;3.00;;;;;;;;;;5018016;28;20283;-70
2023/09/03 09:38:45;;;;;;;5.82;3.58;;;;;;;;;;5036146;28;20038;-73
2023/09/03 09:41:20;;;;;;;3.00;2.70;;;;;;;;;;5035649;28;20424;-75
2023/09/03 09:43:48;;;;;;;4.82;3.80;;;;;;;;;;5036021;28;20080;-75
2023/09/03 09:46:35;;;;;;;4.55;2.95;;;;;;;;;;5017868;28;20124;-70
2023/09/03 09:49:01;;;;;;;3.20;3.00;;;;;;;;;;5035926;28;20503;-68
2023/09/03 09:51:28;;;;;;;5.20;3.70;;;;;;;;;;5035790;28;20029;-63
2023/09/03 09:53:57;;;;;;;3.13;2.80;;;;;;;;;;5035419;28;20108;-71
2023/09/03 09:56:27;;;;;;;2.17;1.83;;;;;;;;;;5035883;28;20609;-64
2023/09/03 09:58:52;;;;;;;2.83;1.85;;;;;;;;;;5035602;28;20037;-64
2023/09/03 10:01:18;;;;;;;2.13;1.92;;;;;;;;;;5034937;28;20128;-64
2023/09/03 10:03:48;;;;;;;2.78;2.30;;;;;;;;;;5035184;28;20038;-65
2023/09/03 10:06:14;;;;;;;1.70;1.60;;;;;;;;;;5035240;28;20477;-60
2023/09/03 10:08:41;;;;;;;1.92;1.83;;;;;;;;;;5035432;28;20105;-58
2023/09/03 10:11:06;;;;;;;6.22;2.28;;;;;;;;;;5035611;28;20112;-58
2023/09/03 10:13:31;;;;;;;1.92;1.80;;;;;;;;;;5017575;28;20296;-58
2023/09/03 10:15:59;;;;;;;1.88;1.73;;;;;;;;;;5035670;28;20361;-57
2023/09/03 10:18:26;;;;;;;2.33;1.73;;;;;;;;;;5034716;28;20018;-57
2023/09/03 10:20:52;;;;;;;2.28;2.10;;;;;;;;;;5035580;28;20104;-57
2023/09/03 10:23:20;;;;;;;2.45;2.13;;;;;;;;;;5035413;28;20048;-57
2023/09/03 10:25:46;;;;;;;2.22;2.00;;;;;;;;;;5035350;28;20066;-57
2023/09/03 10:28:14;;;;;;;3.90;3.03;;;;;;;;;;5035250;28;20022;-57
2023/09/03 10:30:41;;;;;;;4.07;2.88;;;;;;;;;;5018052;28;20455;-57
2023/09/03 10:33:07;;;;;;;2.75;2.40;;;;;;;;;;5035599;28;20100;-57
2023/09/03 10:35:33;;;;;;;2.70;2.50;;;;;;;;;;5034860;28;20044;-57
2023/09/03 10:37:58;;;;;;;2.80;2.60;;;;;;;;;;5035439;28;20037;-56
2023/09/03 10:40:24;;;;;;;3.75;2.95;;;;;;;;;;5018080;28;20036;-57
2023/09/03 10:42:50;;;;;;;3.63;3.33;;;;;;;;;;5035475;28;20033;-57
2023/09/03 10:45:16;;;;;;;3.20;2.90;;;;;;;;;;5017978;28;20104;-57
2023/09/03 10:47:57;;;;;;;4.13;3.83;;;;;;;;;;5035182;28;20545;-57
2023/09/03 10:50:42;;;;;;;3.60;3.40;;;;;;;;;;5033817;28;20040;-57
2023/09/03 10:53:07;;;;;;;3.53;3.33;;;;;;;;;;5033886;28;20041;-57
2023/09/03 10:55:32;;;;;;;3.92;3.28;;;;;;;;;;5032994;28;20033;-57
2023/09/03 10:58:10;;;;;;;3.25;3.05;;;;;;;;;;5033218;28;20112;-57
2023/09/03 11:00:36;;;;;;;4.00;3.60;;;;;;;;;;5032951;28;20444;-57
2023/09/03 11:03:17;;;;;;;3.70;3.30;;;;;;;;;;5033003;28;20029;-57
2023/09/03 11:06:01;;;;;;;3.55;3.25;;;;;;;;;;5032955;28;20041;-57
2023/09/03 11:08:31;;;;;;;3.85;3.50;;;;;;;;;;5033430;28;20413;-57
2023/09/03 11:10:57;;;;;;;2.80;2.65;;;;;;;;;;5033482;28;20484;-57
2023/09/03 11:13:23;;;;;;;4.70;3.10;;;;;;;;;;5033880;28;20183;-57
2023/09/03 11:15:55;;;;;;;3.15;2.63;;;;;;;;;;5016292;28;20120;-57
2023/09/03 11:18:20;;;;;;;3.75;2.88;;;;;;;;;;5016678;28;20030;-57
2023/09/03 11:20:47;;;;;;;2.45;2.25;;;;;;;;;;5034235;28;20388;-57
2023/09/03 11:23:12;;;;;;;2.55;2.35;;;;;;;;;;5034097;28;20036;-57
2023/09/03 11:25:38;;;;;;;3.55;2.88;;;;;;;;;;5034406;28;20017;-56
2023/09/03 11:28:07;;;;;;;3.00;2.50;;;;;;;;;;5034166;28;20053;-57
2023/09/03 11:30:33;;;;;;;2.67;2.53;;;;;;;;;;5033543;28;20034;-56
2023/09/03 11:32:58;;;;;;;4.95;2.70;;;;;;;;;;5034272;28;20025;-57
2023/09/03 11:35:24;;;;;;;3.53;2.50;;;;;;;;;;5033880;28;20381;-57
2023/09/03 11:37:50;;;;;;;3.58;2.53;;;;;;;;;;5033980;28;20512;-57
2023/09/03 11:40:18;;;;;;;3.15;2.90;;;;;;;;;;5033793;28;20069;-57
2023/09/03 11:42:44;;;;;;;2.95;2.58;;;;;;;;;;5033934;28;20385;-57
2023/09/03 11:45:11;;;;;;;2.22;2.05;;;;;;;;;;5034805;28;20041;-57
2023/09/03 11:47:37;;;;;;;2.50;2.30;;;;;;;;;;5034759;28;20055;-57
2023/09/03 11:50:15;;;;;;;2.67;2.47;;;;;;;;;;5034316;28;20033;-57
2023/09/03 11:52:49;;;;;;;2.17;2.08;;;;;;;;;;5034152;28;20112;-57
2023/09/03 11:55:15;;;;;;;2.80;2.60;;;;;;;;;;5034316;28;20104;-57
2023/09/03 11:57:43;;;;;;;4.95;2.60;;;;;;;;;;5034289;28;20045;-57
2023/09/03 12:00:10;;;;;;;2.35;2.20;;;;;;;;;;5033825;28;20108;-57
2023/09/03 12:02:36;;;;;;;2.10;1.90;;;;;;;;;;5033691;28;20619;-56
2023/09/03 12:05:01;;;;;;;4.57;2.33;;;;;;;;;;5034270;28;20041;-57
2023/09/03 12:07:27;;;;;;;2.08;1.90;;;;;;;;;;5033810;28;20033;-57
2023/09/03 12:09:52;;;;;;;2.22;2.13;;;;;;;;;;5034118;28;20120;-56
2023/09/03 12:12:19;;;;;;;2.22;2.13;;;;;;;;;;5034188;28;20032;-57
2023/09/03 12:14:44;;;;;;;2.22;2.08;;;;;;;;;;5034135;28;20034;-57
2023/09/03 12:17:10;;;;;;;2.80;2.45;;;;;;;;;;5033427;28;20048;-57
2023/09/03 12:19:38;;;;;;;2.53;2.42;;;;;;;;;;5033651;28;20044;-57
2023/09/03 12:22:04;;;;;;;3.63;3.35;;;;;;;;;;5032696;28;20029;-57
2023/09/03 12:24:29;;;;;;;3.45;2.63;;;;;;;;;;5033272;28;20038;-57
2023/09/03 12:27:04;;;;;;;3.03;2.55;;;;;;;;;;5033551;28;20026;-57
2023/09/03 12:29:38;;;;;;;2.40;2.15;;;;;;;;;;5033054;28;20469;-57
2023/09/03 12:32:04;;;;;;;2.50;2.30;;;;;;;;;;5015562;28;20029;-57
2023/09/03 12:34:36;;;;;;;2.67;2.30;;;;;;;;;;5032863;28;20013;-57
2023/09/03 12:37:02;;;;;;;2.30;2.20;;;;;;;;;;5032353;28;20527;-57
2023/09/03 12:39:29;;;;;;;2.20;2.10;;;;;;;;;;5032193;28;20048;-57
2023/09/03 12:41:54;;;;;;;5.78;5.28;;;;;;;;;;5031511;28;20069;-57
2023/09/03 12:44:20;;;;;;;3.90;3.60;;;;;;;;;;5032270;28;20267;-57
2023/09/03 12:46:45;;;;;;;13.50;9.50;;;;;;;;;;5032243;28;20481;-57
2023/09/03 12:49:10;;;;;;;4.38;2.83;;;;;;;;;;5032331;28;20053;-57
2023/09/03 12:51:39;;;;;;;7.10;6.43;;;;;;;;;;5013602;28;20037;-56
2023/09/03 12:54:05;;;;;;;5.05;3.53;;;;;;;;;;5032543;28;20044;-56
2023/09/03 12:56:32;;;;;;;2.95;2.75;;;;;;;;;;5032687;28;20026;-56
2023/09/03 12:59:04;;;;;;;3.00;2.80;;;;;;;;;;5023925;28;20492;-58
2023/09/03 13:01:30;;;;;;;2.83;2.53;;;;;;;;;;5020649;28;20046;-56
2023/09/03 13:03:56;;;;;;;3.63;1.88;;;;;;;;;;5032396;28;20477;-56
2023/09/03 13:06:21;;;;;;;2.40;2.20;;;;;;;;;;5032849;28;20045;-56
2023/09/03 13:08:47;;;;;;;3.20;2.90;;;;;;;;;;5033397;28;20401;-56
2023/09/03 13:11:12;;;;;;;3.03;2.72;;;;;;;;;;5015724;28;20056;-56
2023/09/03 13:13:37;;;;;;;2.17;2.08;;;;;;;;;;5033285;28;20037;-56
2023/09/03 13:16:03;;;;;;;3.83;3.53;;;;;;;;;;5033335;28;20026;-56
2023/09/03 13:18:28;;;;;;;2.80;2.60;;;;;;;;;;5033589;28;20438;-56
2023/09/03 13:20:54;;;;;;;2.55;2.35;;;;;;;;;;5033020;28;20120;-56
2023/09/03 13:23:19;;;;;;;4.03;2.28;;;;;;;;;;5032934;28;20029;-56
2023/09/03 13:25:45;;;;;;;2.05;1.90;;;;;;;;;;5033306;28;20033;-56
2023/09/03 13:28:10;;;;;;;2.53;2.33;;;;;;;;;;5033612;28;20420;-56
2023/09/03 13:30:36;;;;;;;3.65;2.92;;;;;;;;;;5032709;28;20018;-56
2023/09/03 13:33:05;;;;;;;2.83;2.50;;;;;;;;;;5027880;28;20484;-57
2023/09/03 13:35:31;;;;;;;2.40;2.20;;;;;;;;;;5012980;28;20089;-56
2023/09/03 13:37:57;;;;;;;2.47;2.28;;;;;;;;;;5013132;28;20030;-56
2023/09/03 13:40:22;;;;;;;2.33;2.13;;;;;;;;;;5013153;28;20152;-56
2023/09/03 13:42:48;;;;;;;2.55;2.30;;;;;;;;;;5012936;28;20034;-56
2023/09/03 13:45:13;;;;;;;2.50;2.30;;;;;;;;;;5013301;28;20108;-57
2023/09/03 13:47:38;;;;;;;1.70;1.60;;;;;;;;;;5013318;28;20120;-56
2023/09/03 13:50:06;;;;;;;8.98;6.20;;;;;;;;;;5013503;28;20534;-56
2023/09/03 13:52:32;;;;;;;2.50;2.30;;;;;;;;;;5014566;28;20066;-56
2023/09/03 13:54:57;;;;;;;2.92;2.70;;;;;;;;;;5016894;28;20060;-56
2023/09/03 13:57:24;;;;;;;8.95;7.30;;;;;;;;;;5016650;28;20141;-56
2023/09/03 13:59:49;;;;;;;8.52;6.40;;;;;;;;;;5016301;28;20025;-56
2023/09/03 14:02:14;;;;;;;13.70;8.88;;;;;;;;;;5016058;28;20045;-57
2023/09/03 14:04:40;;;;;;;9.05;6.50;;;;;;;;;;5016383;28;20026;-57
2023/09/03 14:07:05;;;;;;;3.47;2.92;;;;;;;;;;5016580;28;20018;-57
2023/09/03 14:09:30;;;;;;;3.78;2.47;;;;;;;;;;5016750;28;20449;-57
2023/09/03 14:11:56;;;;;;;2.92;2.65;;;;;;;;;;4998892;28;20529;-57
2023/09/03 14:14:21;;;;;;;6.18;4.30;;;;;;;;;;5016184;28;20026;-56
2023/09/03 14:16:47;;;;;;;2.67;2.47;;;;;;;;;;5016218;28;20037;-57
2023/09/03 14:19:12;;;;;;;2.97;2.67;;;;;;;;;;5016288;28;20117;-57
2023/09/03 14:21:37;;;;;;;4.20;3.33;;;;;;;;;;5016234;28;20053;-57
2023/09/03 14:24:03;;;;;;;2.58;2.45;;;;;;;;;;5014613;28;20370;-57
2023/09/03 14:26:28;;;;;;;2.85;1.95;;;;;;;;;;5015156;28;20029;-57
2023/09/03 14:28:54;;;;;;;3.22;2.10;;;;;;;;;;5015274;28;20034;-57
2023/09/03 14:31:20;;;;;;;2.17;1.98;;;;;;;;;;5014715;28;20018;-57
2023/09/03 14:33:46;;;;;;;3.35;2.50;;;;;;;;;;5015269;28;20029;-57
2023/09/03 14:36:11;;;;;;;2.60;2.40;;;;;;;;;;5014683;28;20022;-57
2023/09/03 14:38:37;;;;;;;2.30;2.10;;;;;;;;;;5015389;28;20068;-57
2023/09/03 14:41:02;;;;;;;2.00;1.83;;;;;;;;;;5015119;28;20029;-57